createdAt,value
2023-03-04T00:01:59.952Z,84.20
2023-03-04T00:04:28.312Z,84.80
2023-03-04T00:06:58.140Z,85.10
2023-03-04T00:09:26.440Z,86.00
2023-03-04T00:11:54.728Z,85.30
2023-03-04T00:14:24.164Z,85.40
2023-03-04T00:16:52.628Z,85.60
2023-03-04T00:19:20.939Z,85.70
2023-03-04T00:21:49.208Z,86.10
2023-03-04T00:24:19.004Z,86.00
2023-03-04T00:26:47.285Z,86.00
2023-03-04T00:29:15.602Z,86.50
2023-03-04T00:31:43.953Z,86.90
2023-03-04T00:34:12.304Z,86.90
2023-03-04T00:36:40.784Z,87.10
2023-03-04T00:39:09.069Z,87.10
2023-03-04T00:41:38.693Z,87.20
2023-03-04T00:44:07.713Z,87.30
2023-03-04T00:46:36.000Z,87.40
2023-03-04T00:49:04.387Z,87.30
2023-03-04T00:51:32.603Z,87.40
2023-03-04T00:54:01.152Z,87.40
2023-03-04T00:56:29.723Z,87.10
2023-03-04T00:58:59.348Z,86.90
2023-03-04T01:01:27.787Z,86.90
2023-03-04T01:03:56.161Z,86.70
2023-03-04T01:06:24.698Z,86.70
2023-03-04T01:08:53.018Z,86.90
2023-03-04T01:11:21.392Z,87.10
2023-03-04T01:13:49.742Z,86.90
2023-03-04T01:16:19.421Z,86.60
2023-03-04T01:18:47.901Z,86.70
2023-03-04T01:21:16.271Z,86.60
2023-03-04T01:23:44.577Z,86.30
2023-03-04T01:26:12.850Z,86.30
2023-03-04T01:28:41.154Z,86.30
2023-03-04T01:31:09.455Z,86.30
2023-03-04T01:33:39.212Z,86.50
2023-03-04T01:36:07.998Z,86.80
2023-03-04T01:38:36.370Z,86.70
2023-03-04T01:41:04.815Z,86.70
2023-03-04T01:43:33.386Z,86.50
2023-03-04T01:46:01.705Z,86.20
2023-03-04T01:48:34.053Z,86.30
2023-03-04T01:51:04.188Z,86.10
2023-03-04T01:53:34.221Z,86.10
2023-03-04T01:56:05.843Z,85.40
2023-03-04T01:58:34.942Z,85.50
2023-03-04T02:01:03.273Z,85.40
2023-03-04T02:03:32.017Z,85.40
2023-03-04T02:06:00.607Z,85.80
2023-03-04T02:08:30.417Z,85.90
2023-03-04T02:10:58.801Z,86.20
2023-03-04T02:13:27.063Z,86.30
2023-03-04T02:15:55.342Z,86.70
2023-03-04T02:18:27.053Z,86.90
2023-03-04T02:21:03.896Z,86.90
2023-03-04T02:23:42.156Z,87.20
2023-03-04T02:26:15.490Z,87.30
2023-03-04T02:28:44.056Z,87.40
2023-03-04T02:31:24.530Z,87.40
2023-03-04T02:33:54.132Z,87.90
2023-03-04T02:36:23.228Z,87.90
2023-03-04T02:38:51.816Z,88.10
2023-03-04T02:41:25.126Z,88.10
2023-03-04T02:43:55.750Z,88.20
2023-03-04T02:46:24.662Z,88.10
2023-03-04T02:48:53.608Z,88.20
2023-03-04T02:51:22.036Z,88.40
2023-03-04T02:53:50.381Z,88.40
2023-03-04T02:56:18.747Z,88.50
2023-03-04T02:58:48.389Z,88.60
2023-03-04T03:01:16.699Z,88.70
2023-03-04T03:03:45.019Z,88.50
2023-03-04T03:06:13.410Z,88.60
2023-03-04T03:08:41.711Z,88.60
2023-03-04T03:11:10.369Z,88.80
2023-03-04T03:13:38.628Z,88.80
2023-03-04T03:16:08.851Z,88.90
2023-03-04T03:18:37.155Z,89.00
2023-03-04T03:21:05.838Z,89.10
2023-03-04T03:23:34.156Z,89.80
2023-03-04T03:26:02.742Z,89.10
2023-03-04T03:28:31.089Z,89.30
2023-03-04T03:30:59.496Z,89.60
2023-03-04T03:33:29.358Z,89.60
2023-03-04T03:35:57.801Z,89.60
2023-03-04T03:38:26.107Z,89.70
2023-03-04T03:40:54.727Z,89.70
2023-03-04T03:43:23.055Z,89.60
2023-03-04T03:45:52.069Z,89.60
2023-03-04T03:48:20.479Z,89.60
2023-03-04T03:50:50.138Z,89.50
2023-03-04T03:53:18.794Z,89.40
2023-03-04T03:55:47.042Z,89.60
2023-03-04T03:58:15.543Z,89.70
2023-03-04T04:00:43.847Z,89.70
2023-03-04T04:03:15.639Z,89.70
2023-03-04T04:05:44.044Z,89.50
2023-03-04T04:08:15.244Z,89.50
2023-03-04T04:10:44.341Z,89.70
2023-03-04T04:13:13.253Z,89.70
2023-03-04T04:15:41.560Z,89.60
2023-03-04T04:18:10.128Z,89.50
2023-03-04T04:20:38.506Z,89.60
2023-03-04T04:23:06.814Z,89.90
2023-03-04T04:25:36.798Z,90.00
2023-03-04T04:28:05.465Z,90.00
2023-03-04T04:30:33.679Z,90.00
2023-03-04T04:33:04.786Z,90.10
2023-03-04T04:35:34.287Z,90.10
2023-03-04T04:38:02.805Z,90.20
2023-03-04T04:40:31.115Z,90.20
2023-03-04T04:43:00.826Z,90.20
2023-03-04T04:45:29.147Z,90.20
2023-03-04T04:47:57.791Z,90.30
2023-03-04T04:50:26.944Z,90.10
2023-03-04T04:52:55.304Z,90.10
2023-03-04T04:55:23.715Z,90.10
2023-03-04T04:57:52.062Z,90.10
2023-03-04T05:00:22.761Z,90.10
2023-03-04T05:02:51.078Z,90.10
2023-03-04T05:05:19.665Z,90.10
2023-03-04T05:07:47.922Z,90.10
2023-03-04T05:10:16.642Z,90.00
2023-03-04T05:12:45.773Z,90.10
2023-03-04T05:15:14.400Z,90.20
2023-03-04T05:17:44.103Z,90.10
2023-03-04T05:20:13.293Z,90.40
2023-03-04T05:22:41.773Z,90.10
2023-03-04T05:25:11.251Z,90.10
2023-03-04T05:27:39.557Z,90.20
2023-03-04T05:30:09.179Z,90.20
2023-03-04T05:32:37.493Z,90.10
2023-03-04T05:35:08.226Z,89.60
2023-03-04T05:37:36.554Z,89.70
2023-03-04T05:40:06.349Z,90.00
2023-03-04T05:42:34.682Z,90.10
2023-03-04T05:45:03.059Z,89.90
2023-03-04T05:47:31.332Z,90.00
2023-03-04T05:49:59.668Z,90.00
2023-03-04T05:52:29.400Z,89.70
2023-03-04T05:54:57.738Z,89.70
2023-03-04T05:57:26.199Z,89.80
2023-03-04T05:59:54.735Z,90.00
2023-03-04T06:02:23.371Z,90.00
2023-03-04T06:04:51.719Z,90.10
2023-03-04T06:07:20.125Z,90.10
2023-03-04T06:09:49.867Z,90.10
2023-03-04T06:12:18.339Z,90.20
2023-03-04T06:14:46.617Z,90.20
2023-03-04T06:17:15.278Z,90.20
2023-03-04T06:19:43.577Z,90.30
2023-03-04T06:22:12.288Z,90.40
2023-03-04T06:24:40.794Z,90.40
2023-03-04T06:27:10.565Z,90.50
2023-03-04T06:29:38.868Z,90.40
2023-03-04T06:32:07.529Z,90.50
2023-03-04T06:34:36.323Z,90.60
2023-03-04T06:37:04.812Z,90.60
2023-03-04T06:39:33.257Z,90.60
2023-03-04T06:42:01.832Z,90.60
2023-03-04T06:44:31.702Z,90.60
2023-03-04T06:47:00.065Z,90.60
2023-03-04T06:49:28.406Z,90.60
2023-03-04T06:51:56.660Z,90.60
2023-03-04T06:54:25.212Z,90.60
2023-03-04T06:56:53.589Z,90.60
2023-03-04T06:59:21.942Z,90.70
2023-03-04T07:01:51.702Z,90.80
2023-03-04T07:04:20.135Z,90.90
2023-03-04T07:06:48.494Z,90.90
2023-03-04T07:09:16.945Z,90.90
2023-03-04T07:11:45.366Z,91.00
2023-03-04T07:14:13.715Z,91.10
2023-03-04T07:16:42.221Z,91.10
2023-03-04T07:19:11.892Z,91.10
2023-03-04T07:21:40.312Z,91.10
2023-03-04T07:24:08.808Z,91.20
2023-03-04T07:26:37.990Z,91.20
2023-03-04T07:29:06.642Z,91.20
2023-03-04T07:31:36.911Z,91.30
2023-03-04T07:34:06.919Z,91.30
2023-03-04T07:36:38.092Z,91.30
2023-03-04T07:39:08.133Z,91.30
2023-03-04T07:41:37.380Z,91.10
2023-03-04T07:44:06.928Z,91.30
2023-03-04T07:46:35.717Z,91.20
2023-03-04T07:49:04.028Z,91.50
2023-03-04T07:51:32.360Z,91.60
2023-03-04T07:54:02.960Z,91.50
2023-03-04T07:56:33.154Z,91.40
2023-03-04T07:59:03.204Z,91.50
2023-03-04T08:01:33.816Z,91.50
2023-03-04T08:04:03.441Z,91.40
2023-03-04T08:06:32.532Z,91.20
2023-03-04T08:09:04.331Z,91.60
2023-03-04T08:11:33.542Z,91.50
2023-03-04T08:14:01.854Z,91.40
2023-03-04T08:16:30.526Z,91.40
2023-03-04T08:19:02.109Z,91.00
2023-03-04T08:21:31.792Z,91.10
2023-03-04T08:24:08.665Z,91.60
2023-03-04T08:26:42.132Z,91.70
2023-03-04T08:29:12.766Z,91.70
2023-03-04T08:31:41.440Z,91.70
2023-03-04T08:34:10.639Z,91.60
2023-03-04T08:36:38.985Z,92.00
2023-03-04T08:39:08.826Z,92.30
2023-03-04T08:41:38.047Z,91.90
2023-03-04T08:44:08.310Z,92.00
2023-03-04T08:46:37.048Z,92.00
2023-03-04T08:49:05.843Z,92.00
2023-03-04T08:51:35.827Z,91.80
2023-03-04T08:54:04.611Z,92.00
2023-03-04T08:56:34.428Z,91.90
2023-03-04T08:59:02.685Z,91.90
2023-03-04T09:01:31.064Z,92.00
2023-03-04T09:03:59.381Z,92.40
2023-03-04T09:06:27.707Z,92.00
2023-03-04T09:08:55.991Z,91.60
2023-03-04T09:11:24.339Z,91.00
2023-03-04T09:13:54.088Z,90.70
2023-03-04T09:16:22.566Z,90.50
2023-03-04T09:18:50.937Z,90.60
2023-03-04T09:21:19.187Z,91.00
2023-03-04T09:23:47.511Z,91.30
2023-03-04T09:26:22.100Z,90.80
2023-03-04T09:28:57.973Z,89.60
2023-03-04T09:31:27.272Z,88.20
2023-03-04T09:33:57.834Z,87.60
2023-03-04T09:36:26.153Z,87.80
2023-03-04T09:38:54.497Z,87.40
2023-03-04T09:41:25.613Z,87.30
2023-03-04T09:43:55.004Z,87.30
2023-03-04T09:46:33.847Z,87.20
2023-03-04T09:49:02.332Z,87.30
2023-03-04T09:51:46.634Z,86.50
2023-03-04T09:54:23.315Z,85.70
2023-03-04T09:56:54.054Z,85.60
2023-03-04T09:59:28.383Z,85.60
2023-03-04T10:02:00.681Z,85.70
2023-03-04T10:04:36.418Z,86.00
2023-03-04T10:07:06.498Z,86.10
2023-03-04T10:09:45.148Z,85.80
2023-03-04T10:12:16.194Z,85.00
2023-03-04T10:14:48.068Z,84.80
2023-03-04T10:17:21.001Z,83.90
2023-03-04T10:19:58.034Z,84.00
2023-03-04T10:22:33.219Z,84.00
2023-03-04T10:25:15.660Z,84.20
2023-03-04T10:27:44.566Z,83.90
2023-03-04T10:30:24.799Z,83.90
2023-03-04T10:32:55.864Z,83.60
2023-03-04T10:35:29.144Z,83.20
2023-03-04T10:38:02.940Z,82.90
2023-03-04T10:40:38.113Z,82.70
2023-03-04T10:43:08.342Z,81.80
2023-03-04T10:45:41.235Z,81.90
2023-03-04T10:48:20.773Z,82.10
2023-03-04T10:50:49.267Z,82.40
2023-03-04T10:53:34.626Z,83.10
2023-03-04T10:56:03.244Z,82.10
2023-03-04T10:58:31.948Z,82.10
2023-03-04T11:01:05.749Z,82.30
2023-03-04T11:03:37.599Z,82.00
2023-03-04T11:06:18.144Z,81.00
2023-03-04T11:08:54.278Z,79.40
2023-03-04T11:11:30.001Z,79.40
2023-03-04T11:14:01.635Z,79.00
2023-03-04T11:16:32.217Z,77.80
2023-03-04T11:19:06.339Z,77.80
2023-03-04T11:21:40.845Z,77.80
2023-03-04T11:24:27.757Z,78.60
2023-03-04T11:27:02.410Z,79.00
2023-03-04T11:29:36.118Z,78.90
2023-03-04T11:32:12.453Z,76.70
2023-03-04T11:34:47.945Z,76.50
2023-03-04T11:37:24.325Z,75.60
2023-03-04T11:39:56.695Z,75.80
2023-03-04T11:42:36.905Z,76.40
2023-03-04T11:45:13.181Z,76.40
2023-03-04T11:47:57.210Z,75.20
2023-03-04T11:50:33.018Z,74.40
2023-03-04T11:53:21.937Z,73.80
2023-03-04T11:55:57.929Z,72.50
2023-03-04T11:58:54.505Z,72.00
2023-03-04T12:01:29.450Z,71.60
2023-03-04T12:04:21.849Z,71.50
2023-03-04T12:07:07.119Z,71.80
2023-03-04T12:09:43.995Z,73.00
2023-03-04T12:12:33.315Z,72.00
2023-03-04T12:15:12.595Z,72.30
2023-03-04T12:18:06.829Z,72.60
2023-03-04T12:20:49.074Z,72.80
2023-03-04T12:23:35.438Z,73.20
2023-03-04T12:26:11.691Z,72.00
2023-03-04T12:28:52.481Z,72.20
2023-03-04T12:31:37.178Z,72.40
2023-03-04T12:34:39.441Z,72.60
2023-03-04T12:37:41.056Z,72.70
2023-03-04T12:40:37.443Z,70.60
2023-03-04T12:43:20.640Z,70.00
2023-03-04T12:45:54.655Z,70.40
2023-03-04T12:48:31.799Z,70.20
2023-03-04T12:51:11.206Z,69.80
2023-03-04T12:53:49.782Z,68.90
2023-03-04T12:56:26.664Z,69.10
2023-03-04T12:58:59.369Z,68.60
2023-03-04T13:01:30.968Z,69.30
2023-03-04T13:04:07.499Z,69.00
2023-03-04T13:06:48.042Z,66.70
2023-03-04T13:09:23.848Z,66.00
2023-03-04T13:12:03.314Z,66.80
2023-03-04T13:14:36.209Z,66.80
2023-03-04T13:17:43.676Z,66.70
2023-03-04T13:20:26.559Z,66.40
2023-03-04T13:22:58.263Z,66.70
2023-03-04T13:25:40.083Z,65.90
2023-03-04T13:28:34.513Z,63.90
2023-03-04T13:31:24.375Z,64.30
2023-03-04T13:34:02.036Z,64.00
2023-03-04T13:36:46.772Z,63.30
2023-03-04T13:39:28.161Z,63.50
2023-03-04T13:41:58.265Z,64.00
2023-03-04T13:44:58.927Z,62.90
2023-03-04T13:47:44.694Z,62.00
2023-03-04T13:50:39.380Z,61.90
2023-03-04T13:53:41.839Z,61.30
2023-03-04T13:56:34.391Z,60.70
2023-03-04T13:59:29.847Z,60.60
2023-03-04T14:02:02.310Z,60.80
2023-03-04T14:04:33.648Z,59.60
2023-03-04T14:07:04.087Z,59.90
2023-03-04T14:09:35.199Z,60.70
2023-03-04T14:12:06.247Z,60.00
2023-03-04T14:14:44.348Z,59.50
2023-03-04T14:17:21.035Z,60.10
2023-03-04T14:19:52.541Z,59.40
2023-03-04T14:22:28.022Z,59.60
2023-03-04T14:25:04.805Z,59.30
2023-03-04T14:27:36.306Z,58.90
2023-03-04T14:30:07.597Z,58.70
2023-03-04T14:32:37.364Z,59.40
2023-03-04T14:35:08.131Z,59.80
2023-03-04T14:37:44.762Z,59.90
2023-03-04T14:40:22.621Z,59.50
2023-03-04T14:42:55.011Z,59.10
2023-03-04T14:45:24.584Z,59.20
2023-03-04T14:47:57.621Z,59.60
2023-03-04T14:50:26.019Z,59.10
2023-03-04T14:53:15.164Z,58.60
2023-03-04T14:55:57.460Z,58.90
2023-03-04T14:58:28.039Z,58.60
2023-03-04T15:01:16.220Z,58.90
2023-03-04T15:03:54.752Z,59.10
2023-03-04T15:06:24.450Z,59.20
2023-03-04T15:08:58.466Z,59.50
2023-03-04T15:11:29.258Z,59.60
2023-03-04T15:13:59.391Z,59.40
2023-03-04T15:16:30.583Z,59.00
2023-03-04T15:19:03.592Z,58.80
2023-03-04T15:21:36.856Z,58.70
2023-03-04T15:24:06.708Z,58.90
2023-03-04T15:26:39.068Z,58.80
2023-03-04T15:29:15.820Z,58.70
2023-03-04T15:31:45.170Z,59.10
2023-03-04T15:34:16.033Z,59.30
2023-03-04T15:36:46.961Z,59.30
2023-03-04T15:39:17.877Z,60.10
2023-03-04T15:41:48.461Z,59.90
2023-03-04T15:44:17.069Z,59.90
2023-03-04T15:46:45.457Z,60.00
2023-03-04T15:49:15.172Z,60.10
2023-03-04T15:51:43.756Z,60.60
2023-03-04T15:54:15.102Z,60.30
2023-03-04T15:56:44.014Z,60.20
2023-03-04T15:59:15.067Z,60.50
2023-03-04T16:01:43.787Z,60.00
2023-03-04T16:04:16.983Z,60.00
2023-03-04T16:06:46.536Z,60.80
2023-03-04T16:09:17.954Z,61.30
2023-03-04T16:11:47.821Z,60.90
2023-03-04T16:14:17.736Z,61.30
2023-03-04T16:16:47.045Z,61.30
2023-03-04T16:19:16.774Z,61.20
2023-03-04T16:21:45.087Z,61.10
2023-03-04T16:24:19.093Z,61.10
2023-03-04T16:26:47.503Z,61.60
2023-03-04T16:29:16.763Z,61.40
2023-03-04T16:31:45.332Z,61.20
2023-03-04T16:34:14.190Z,61.40
2023-03-04T16:36:44.160Z,60.90
2023-03-04T16:39:21.255Z,61.10
2023-03-04T16:41:49.826Z,61.70
2023-03-04T16:44:18.204Z,62.00
2023-03-04T16:46:46.525Z,62.10
2023-03-04T16:49:14.935Z,62.00
2023-03-04T16:51:49.642Z,61.90
2023-03-04T16:54:22.410Z,61.70
2023-03-04T16:56:51.031Z,61.80
2023-03-04T16:59:19.530Z,61.60
2023-03-04T17:01:48.150Z,62.00
2023-03-04T17:04:16.437Z,62.30
2023-03-04T17:06:46.154Z,61.90
2023-03-04T17:09:14.712Z,62.10
2023-03-04T17:11:43.098Z,62.30
2023-03-04T17:14:11.583Z,62.50
2023-03-04T17:16:39.951Z,63.00
2023-03-04T17:19:08.469Z,63.20
2023-03-04T17:21:36.797Z,63.60
2023-03-04T17:24:11.089Z,63.80
2023-03-04T17:26:39.888Z,64.00
2023-03-04T17:29:08.202Z,63.90
2023-03-04T17:31:38.197Z,64.00
2023-03-04T17:34:06.560Z,64.30
2023-03-04T17:36:35.306Z,63.80
2023-03-04T17:39:06.028Z,63.70
2023-03-04T17:41:36.136Z,64.20
2023-03-04T17:44:05.941Z,64.70
2023-03-04T17:46:34.507Z,64.20
2023-03-04T17:49:02.961Z,64.20
2023-03-04T17:51:36.646Z,64.10
2023-03-04T17:54:08.655Z,64.20
2023-03-04T17:56:38.022Z,63.90
2023-03-04T17:59:08.257Z,63.80
2023-03-04T18:01:36.566Z,63.50
2023-03-04T18:04:05.130Z,63.60
2023-03-04T18:06:33.520Z,63.40
2023-03-04T18:09:01.944Z,63.10
2023-03-04T18:11:32.524Z,62.60
2023-03-04T18:14:00.827Z,62.70
2023-03-04T18:16:29.172Z,63.60
2023-03-04T18:18:59.258Z,63.00
2023-03-04T18:21:29.325Z,62.60
2023-03-04T18:23:57.812Z,62.40
2023-03-04T18:26:27.022Z,62.10
2023-03-04T18:28:57.901Z,62.10
2023-03-04T18:31:31.198Z,62.90
2023-03-04T18:34:00.562Z,63.00
2023-03-04T18:36:29.644Z,63.40
2023-03-04T18:38:59.573Z,63.90
2023-03-04T18:41:28.492Z,64.00
2023-03-04T18:43:58.250Z,64.60
2023-03-04T18:46:32.094Z,64.80
2023-03-04T18:49:03.803Z,65.30
2023-03-04T18:51:32.747Z,65.50
2023-03-04T18:54:01.150Z,65.80
2023-03-04T18:56:37.820Z,66.20
2023-03-04T18:59:12.452Z,66.80
2023-03-04T19:01:41.874Z,67.10
2023-03-04T19:04:10.369Z,67.10
2023-03-04T19:06:39.107Z,67.40
2023-03-04T19:09:08.294Z,67.60
2023-03-04T19:11:36.689Z,67.50
2023-03-04T19:14:05.954Z,67.50
2023-03-04T19:16:35.919Z,67.40
2023-03-04T19:19:04.314Z,67.30
2023-03-04T19:21:33.464Z,67.30
2023-03-04T19:24:01.704Z,67.30
2023-03-04T19:26:30.076Z,67.80
2023-03-04T19:28:58.633Z,67.80
2023-03-04T19:31:27.240Z,67.50
2023-03-04T19:33:56.923Z,67.40
2023-03-04T19:36:26.551Z,67.50
2023-03-04T19:38:55.477Z,67.60
2023-03-04T19:41:24.797Z,67.60
2023-03-04T19:43:53.883Z,67.70
2023-03-04T19:46:22.321Z,67.30
2023-03-04T19:48:50.833Z,66.80
2023-03-04T19:51:22.104Z,66.60
2023-03-04T19:53:51.581Z,67.60
2023-03-04T19:56:20.190Z,68.00
2023-03-04T19:58:49.038Z,68.00
2023-03-04T20:01:21.992Z,67.90
2023-03-04T20:03:50.356Z,67.90
2023-03-04T20:06:20.035Z,67.80
2023-03-04T20:08:48.309Z,67.70
2023-03-04T20:11:17.384Z,67.30
2023-03-04T20:13:45.655Z,66.90
2023-03-04T20:16:15.029Z,66.50
2023-03-04T20:18:44.590Z,66.40
2023-03-04T20:21:13.665Z,66.60
2023-03-04T20:23:43.399Z,65.90
2023-03-04T20:26:11.881Z,64.70
2023-03-04T20:28:40.086Z,63.20
2023-03-04T20:31:12.865Z,63.50
2023-03-04T20:33:41.378Z,64.30
2023-03-04T20:36:10.060Z,64.70
2023-03-04T20:38:38.372Z,65.00
2023-03-04T20:41:08.038Z,64.70
2023-03-04T20:43:36.436Z,64.30
2023-03-04T20:46:30.821Z,63.90
2023-03-04T20:49:02.084Z,64.00
2023-03-04T20:51:31.356Z,63.80
2023-03-04T20:54:00.184Z,63.70
2023-03-04T20:56:30.507Z,63.70
2023-03-04T20:59:01.705Z,63.50
2023-03-04T21:01:31.089Z,63.60
2023-03-04T21:03:59.709Z,63.40
2023-03-04T21:06:29.171Z,63.30
2023-03-04T21:08:58.344Z,62.90
2023-03-04T21:11:26.694Z,62.70
2023-03-04T21:13:57.816Z,62.70
2023-03-04T21:16:28.602Z,63.20
2023-03-04T21:18:56.882Z,63.90
2023-03-04T21:21:26.575Z,63.90
2023-03-04T21:23:56.888Z,63.60
2023-03-04T21:26:26.397Z,63.50
2023-03-04T21:28:56.620Z,63.50
2023-03-04T21:31:27.531Z,63.70
2023-03-04T21:33:58.704Z,63.80
2023-03-04T21:36:27.388Z,63.80
2023-03-04T21:38:55.964Z,63.80
2023-03-04T21:41:25.510Z,64.10
2023-03-04T21:43:55.450Z,63.90
2023-03-04T21:46:24.062Z,64.30
2023-03-04T21:48:52.423Z,63.50
2023-03-04T21:51:20.982Z,63.60
2023-03-04T21:53:49.288Z,63.70
2023-03-04T21:56:17.554Z,63.40
2023-03-04T21:58:46.187Z,63.50
2023-03-04T22:01:18.615Z,63.50
2023-03-04T22:03:48.831Z,63.70
2023-03-04T22:06:21.834Z,63.80
2023-03-04T22:08:50.496Z,64.10
2023-03-04T22:11:19.446Z,64.40
2023-03-04T22:13:49.085Z,64.30
2023-03-04T22:16:18.876Z,63.90
2023-03-04T22:18:47.220Z,63.70
2023-03-04T22:21:17.542Z,63.60
2023-03-04T22:23:46.029Z,63.80
2023-03-04T22:26:16.564Z,63.90
2023-03-04T22:28:45.890Z,64.00
2023-03-04T22:31:26.405Z,64.10
2023-03-04T22:33:54.674Z,64.20
2023-03-04T22:36:23.167Z,64.10
2023-03-04T22:38:51.648Z,64.10
2023-03-04T22:41:21.935Z,64.10
2023-03-04T22:43:51.127Z,63.70
2023-03-04T22:46:23.449Z,63.70
2023-03-04T22:48:53.372Z,64.00
2023-03-04T22:51:22.050Z,64.20
2023-03-04T22:53:51.595Z,64.30
2023-03-04T22:56:21.401Z,64.30
2023-03-04T22:58:50.224Z,64.20
2023-03-04T23:01:21.565Z,64.40
2023-03-04T23:03:51.010Z,64.60
2023-03-04T23:06:21.609Z,64.80
2023-03-04T23:08:52.047Z,64.90
2023-03-04T23:11:23.739Z,64.90
2023-03-04T23:13:53.583Z,65.80
2023-03-04T23:16:25.866Z,65.00
2023-03-04T23:18:54.339Z,65.00
2023-03-04T23:21:24.550Z,65.00
2023-03-04T23:23:53.392Z,64.90
2023-03-04T23:26:24.739Z,64.90
2023-03-04T23:28:55.737Z,65.00
2023-03-04T23:31:25.936Z,65.00
2023-03-04T23:33:57.282Z,65.10
2023-03-04T23:36:27.971Z,65.40
2023-03-04T23:38:56.765Z,65.30
2023-03-04T23:41:27.328Z,65.30
2023-03-04T23:43:56.940Z,65.20
2023-03-04T23:46:27.657Z,66.10
2023-03-04T23:48:56.652Z,65.30
2023-03-04T23:51:26.894Z,65.40
2023-03-04T23:53:55.468Z,65.50
2023-03-04T23:56:25.213Z,65.60
2023-03-04T23:58:53.581Z,65.40
